Time;durP1;ratioP1;P1;durP2;ratioP2;P2;SDS_P1;SDS_P2;PMS_P1;PMS_P2;Temp;Humidity;BMP_temperature;BMP_pressure;BME280_temperature;BME280_humidity;BME280_pressure;Samples;Min_cycle;Max_cycle;Signal;HPM_P1;HPM_P2
2022/11/03 00:02:16;;;;;;;9.43;2.78;;;10.90;99.90;;;;;;4952550;28;20379;-85
2022/11/03 00:04:42;;;;;;;11.15;3.15;;;10.90;99.90;;;;;;4967754;28;20035;-85
2022/11/03 00:07:08;;;;;;;10.25;2.92;;;10.90;99.90;;;;;;4984110;28;20049;-85
2022/11/03 00:09:34;;;;;;;13.63;3.15;;;10.90;99.90;;;;;;4982980;28;20053;-85
2022/11/03 00:12:00;;;;;;;12.23;2.92;;;11.00;99.90;;;;;;4951888;28;20034;-85
2022/11/03 00:14:27;;;;;;;10.35;2.80;;;11.00;99.90;;;;;;4967367;28;20038;-85
2022/11/03 00:16:53;;;;;;;12.27;3.13;;;11.00;99.90;;;;;;4953652;28;20049;-85
2022/11/03 00:19:19;;;;;;;12.70;2.97;;;11.10;99.90;;;;;;4966294;28;20042;-86
2022/11/03 00:21:45;;;;;;;13.13;3.58;;;11.10;99.90;;;;;;4948803;28;20120;-85
2022/11/03 00:24:12;;;;;;;12.95;3.28;;;11.10;99.90;;;;;;4967474;28;20055;-85
2022/11/03 00:26:38;;;;;;;11.90;2.97;;;11.10;99.90;;;;;;4970184;28;20389;-86
2022/11/03 00:29:09;;;;;;;8.07;3.20;;;11.10;99.90;;;;;;4950683;28;20045;-85
2022/11/03 00:31:37;;;;;;;11.60;2.90;;;11.20;99.90;;;;;;4953595;28;20101;-85
2022/11/03 00:34:04;;;;;;;14.40;3.03;;;11.10;99.90;;;;;;4963959;28;20488;-85
2022/11/03 00:36:35;;;;;;;8.23;3.20;;;11.10;99.90;;;;;;4951473;28;20049;-85
2022/11/03 00:39:01;;;;;;;9.13;3.20;;;11.10;99.90;;;;;;4952507;28;20541;-85
2022/11/03 00:41:27;;;;;;;9.13;2.90;;;11.00;99.90;;;;;;4951548;28;20182;-86
2022/11/03 00:43:53;;;;;;;13.90;2.90;;;11.00;99.90;;;;;;4952484;28;20034;-86
2022/11/03 00:46:20;;;;;;;9.50;3.75;;;11.10;99.90;;;;;;4966222;28;20058;-85
2022/11/03 00:48:46;;;;;;;12.55;3.20;;;11.90;99.90;;;;;;4950939;28;20109;-85
2022/11/03 00:51:29;;;;;;;14.88;3.22;;;11.00;99.90;;;;;;4968604;28;20070;-85
2022/11/03 00:53:56;;;;;;;11.48;2.78;;;11.00;99.90;;;;;;4968562;28;20121;-85
2022/11/03 00:56:26;;;;;;;9.85;2.85;;;10.90;99.90;;;;;;4968479;28;20377;-86
2022/11/03 00:58:53;;;;;;;13.07;3.47;;;11.00;99.90;;;;;;4951391;28;20043;-85
2022/11/03 01:01:24;;;;;;;11.18;3.13;;;11.00;99.90;;;;;;4950632;28;20035;-86
2022/11/03 01:06:49;;;;;;;17.42;3.22;;;10.80;99.90;;;;;;4966954;28;20038;-85
2022/11/03 01:09:22;;;;;;;12.23;3.28;;;10.80;99.90;;;;;;4967650;28;20404;-85
2022/11/03 01:11:58;;;;;;;12.25;3.25;;;10.80;99.90;;;;;;4964285;28;20047;-86
2022/11/03 01:14:32;;;;;;;9.57;3.03;;;10.80;99.90;;;;;;4967202;28;20427;-85
2022/11/03 01:16:57;;;;;;;9.77;2.65;;;10.70;99.90;;;;;;4967122;28;20047;-85
2022/11/03 01:19:24;;;;;;;10.90;3.35;;;10.70;99.90;;;;;;4952922;28;20110;-85
2022/11/03 01:21:51;;;;;;;14.57;3.22;;;10.60;99.90;;;;;;4967298;28;20453;-85
2022/11/03 01:24:17;;;;;;;15.00;3.25;;;10.60;99.90;;;;;;4948835;28;20085;-85
2022/11/03 01:26:42;;;;;;;9.45;2.75;;;10.60;99.90;;;;;;4946682;28;20429;-85
2022/11/03 01:29:08;;;;;;;16.83;3.10;;;10.60;99.90;;;;;;4951667;28;20057;-85
2022/11/03 01:31:34;;;;;;;10.82;3.58;;;10.60;99.90;;;;;;4953752;28;20039;-84
2022/11/03 01:34:00;;;;;;;10.07;2.22;;;10.60;99.90;;;;;;4953085;28;20039;-85
2022/11/03 01:36:26;;;;;;;10.63;2.83;;;10.50;99.90;;;;;;4956345;28;20178;-85
2022/11/03 01:38:54;;;;;;;17.95;3.47;;;10.60;99.90;;;;;;4955347;28;20042;-86
2022/11/03 01:41:25;;;;;;;15.20;3.13;;;10.60;99.90;;;;;;4954145;28;20047;-85
2022/11/03 01:44:11;;;;;;;10.70;2.75;;;10.60;99.90;;;;;;4955471;28;20484;-85
2022/11/03 01:46:50;;;;;;;9.55;2.67;;;10.50;99.90;;;;;;4986282;28;20031;-85
2022/11/03 01:49:26;;;;;;;11.77;3.08;;;10.50;99.90;;;;;;4968503;28;20064;-86
2022/11/03 01:52:16;;;;;;;9.00;2.15;;;10.50;99.90;;;;;;4967296;28;20119;-85
2022/11/03 01:54:45;;;;;;;10.68;3.28;;;10.50;99.90;;;;;;4969163;28;20053;-85
2022/11/03 01:57:18;;;;;;;11.80;2.95;;;10.60;99.90;;;;;;4966877;28;20038;-86
2022/11/03 01:59:46;;;;;;;10.80;2.80;;;10.40;99.90;;;;;;4969255;28;20035;-85
2022/11/03 02:02:12;;;;;;;10.15;3.53;;;10.40;99.90;;;;;;4971381;28;20042;-85
2022/11/03 02:04:38;;;;;;;9.52;3.10;;;10.40;99.90;;;;;;4971161;28;20045;-86
2022/11/03 02:07:16;;;;;;;14.88;3.40;;;10.40;99.90;;;;;;4969001;28;20377;-85
2022/11/03 02:09:41;;;;;;;9.77;3.13;;;10.40;99.90;;;;;;4955280;28;20047;-85
2022/11/03 02:12:09;;;;;;;11.05;3.83;;;10.30;99.90;;;;;;4970301;28;20101;-85
2022/11/03 02:14:39;;;;;;;12.57;3.42;;;10.30;99.90;;;;;;4983707;28;20444;-85
2022/11/03 02:17:09;;;;;;;9.25;3.25;;;10.40;99.90;;;;;;4968850;28;20051;-85
2022/11/03 02:19:40;;;;;;;9.95;2.83;;;10.40;99.90;;;;;;4969895;28;20122;-85
2022/11/03 02:22:12;;;;;;;12.55;3.03;;;10.60;99.90;;;;;;4969509;28;20081;-85
2022/11/03 02:24:54;;;;;;;11.70;2.92;;;10.40;99.90;;;;;;4951485;28;20143;-85
2022/11/03 02:27:20;;;;;;;8.45;2.80;;;10.40;99.90;;;;;;4966139;28;20101;-85
2022/11/03 02:29:47;;;;;;;7.35;2.80;;;10.40;99.90;;;;;;4953805;28;20511;-85
2022/11/03 02:32:25;;;;;;;11.00;3.08;;;10.30;99.90;;;;;;4955391;28;20042;-85
2022/11/03 02:34:56;;;;;;;10.20;2.88;;;10.30;99.90;;;;;;4969138;28;20051;-85
2022/11/03 02:37:33;;;;;;;14.40;3.60;;;10.30;99.90;;;;;;4953285;28;20034;-85
2022/11/03 02:40:07;;;;;;;16.92;3.10;;;10.20;99.90;;;;;;4971372;28;20046;-85
2022/11/03 02:42:35;;;;;;;13.93;3.42;;;10.20;99.90;;;;;;4954702;28;20123;-85
2022/11/03 02:45:05;;;;;;;7.47;2.75;;;10.20;99.90;;;;;;4970850;28;20045;-85
2022/11/03 02:47:33;;;;;;;11.65;3.47;;;10.20;99.90;;;;;;4971859;28;20146;-86
2022/11/03 02:49:59;;;;;;;12.68;4.10;;;10.80;99.90;;;;;;4953850;28;20066;-86
2022/11/03 02:52:33;;;;;;;7.30;2.95;;;10.20;99.90;;;;;;4954236;28;20081;-85
2022/11/03 02:55:19;;;;;;;11.38;3.80;;;10.10;99.90;;;;;;4968751;28;20514;-85
2022/11/03 02:57:54;;;;;;;9.45;3.30;;;10.10;99.90;;;;;;4969415;28;20129;-85
2022/11/03 03:00:20;;;;;;;10.38;3.22;;;10.10;99.90;;;;;;4965668;28;20047;-85
2022/11/03 03:03:10;;;;;;;15.85;3.47;;;10.00;99.90;;;;;;4969100;28;20046;-86
2022/11/03 03:05:39;;;;;;;10.32;3.33;;;10.00;99.90;;;;;;4965928;28;20074;-86
2022/11/03 03:08:09;;;;;;;13.27;3.10;;;10.00;99.90;;;;;;4968559;28;20034;-86
2022/11/03 03:10:42;;;;;;;13.25;3.28;;;10.00;99.90;;;;;;4952656;28;20050;-85
2022/11/03 03:13:11;;;;;;;14.57;4.38;;;10.00;99.90;;;;;;4957678;28;20086;-85
2022/11/03 03:16:05;;;;;;;16.90;3.63;;;10.00;99.90;;;;;;4968904;28;20039;-85
2022/11/03 03:18:56;;;;;;;13.55;3.67;;;10.10;99.90;;;;;;4970012;28;20311;-85
2022/11/03 03:21:25;;;;;;;12.55;3.10;;;10.00;99.90;;;;;;4965241;28;20559;-86
2022/11/03 03:24:01;;;;;;;6.88;2.83;;;10.00;99.90;;;;;;4967402;28;20476;-85
2022/11/03 03:26:36;;;;;;;8.65;3.13;;;10.00;99.90;;;;;;4951303;28;20137;-85
2022/11/03 03:29:15;;;;;;;11.95;3.75;;;10.00;99.90;;;;;;4967042;28;20074;-85
2022/11/03 03:31:48;;;;;;;9.55;3.00;;;9.90;99.90;;;;;;4969745;28;20045;-85
2022/11/03 03:34:16;;;;;;;9.52;3.25;;;9.90;99.90;;;;;;4969377;28;20126;-85
2022/11/03 03:36:45;;;;;;;14.15;3.60;;;10.00;99.90;;;;;;4947813;28;20043;-85
2022/11/03 03:39:13;;;;;;;10.05;3.03;;;10.00;99.90;;;;;;4954373;28;20452;-85
2022/11/03 03:41:40;;;;;;;11.50;3.58;;;10.00;99.90;;;;;;4981270;28;20066;-85
2022/11/03 03:44:08;;;;;;;13.88;3.50;;;10.00;99.90;;;;;;4931242;28;20075;-86
2022/11/03 03:46:39;;;;;;;8.50;2.90;;;10.10;99.90;;;;;;4965525;28;20043;-86
2022/11/03 03:49:05;;;;;;;8.30;3.25;;;10.10;99.90;;;;;;4967166;28;20432;-85
2022/11/03 03:51:32;;;;;;;13.80;3.35;;;10.10;99.90;;;;;;4968797;28;20045;-85
2022/11/03 03:53:57;;;;;;;9.20;3.05;;;10.10;99.90;;;;;;4966413;28;20042;-85
2022/11/03 03:56:32;;;;;;;11.35;3.65;;;10.10;99.90;;;;;;4953409;28;20053;-85
2022/11/03 03:58:58;;;;;;;8.75;2.95;;;10.10;99.90;;;;;;4967782;28;20551;-84
2022/11/03 04:01:24;;;;;;;10.57;3.38;;;10.10;99.90;;;;;;4953540;28;20219;-85
2022/11/03 04:03:49;;;;;;;13.32;3.92;;;10.10;99.90;;;;;;4953336;28;20034;-85
2022/11/03 04:06:15;;;;;;;11.57;3.20;;;10.10;99.90;;;;;;4952924;28;20512;-85
2022/11/03 04:08:40;;;;;;;12.45;3.58;;;10.10;99.90;;;;;;4950647;28;20047;-85
2022/11/03 04:22:17;;;;;;;13.60;3.22;;;10.00;99.90;;;;;;4956409;28;20051;-85
2022/11/03 04:24:50;;;;;;;14.77;3.72;;;9.90;99.90;;;;;;4971144;28;20046;-85
2022/11/03 04:27:34;;;;;;;10.38;3.25;;;9.90;99.90;;;;;;4966898;28;20448;-85
2022/11/03 04:30:18;;;;;;;14.05;3.47;;;9.90;99.90;;;;;;4967396;28;20046;-85
2022/11/03 04:32:48;;;;;;;11.18;3.40;;;9.90;99.90;;;;;;4965758;28;20030;-85
2022/11/03 04:35:26;;;;;;;11.23;3.35;;;9.90;99.90;;;;;;4967796;28;20129;-86
2022/11/03 04:38:02;;;;;;;10.55;2.83;;;9.80;99.90;;;;;;4981345;28;20043;-86
2022/11/03 04:40:28;;;;;;;14.10;3.45;;;9.80;99.90;;;;;;4967032;28;20049;-85
2022/11/03 04:42:54;;;;;;;13.30;3.42;;;9.80;99.90;;;;;;4933802;28;20035;-85
2022/11/03 04:45:29;;;;;;;10.23;3.13;;;9.80;99.90;;;;;;4967926;28;20039;-85
2022/11/03 04:47:58;;;;;;;10.27;3.30;;;9.80;99.90;;;;;;4966994;28;20066;-85
2022/11/03 04:50:24;;;;;;;12.73;3.55;;;9.80;99.90;;;;;;4937761;28;20512;-85
2022/11/03 04:52:59;;;;;;;12.27;3.30;;;9.80;99.90;;;;;;4969229;28;20126;-85
2022/11/03 04:55:25;;;;;;;7.63;3.47;;;9.80;99.90;;;;;;4965942;28;20035;-85
2022/11/03 04:57:59;;;;;;;10.10;3.17;;;9.80;99.90;;;;;;4952317;28;20105;-85
2022/11/03 05:00:24;;;;;;;14.48;3.53;;;10.10;99.90;;;;;;4982602;28;20066;-85
2022/11/03 05:02:50;;;;;;;9.48;2.72;;;9.80;99.90;;;;;;4921540;28;20468;-86
2022/11/03 05:05:22;;;;;;;9.18;3.35;;;9.80;99.90;;;;;;4937744;28;20045;-86
2022/11/03 05:07:50;;;;;;;11.05;3.00;;;9.80;99.90;;;;;;4971332;28;20366;-85
2022/11/03 05:10:20;;;;;;;23.45;4.07;;;9.80;99.90;;;;;;4971095;28;20038;-85
2022/11/03 05:12:47;;;;;;;9.15;2.95;;;9.80;99.90;;;;;;4971600;28;20039;-85
2022/11/03 05:15:41;;;;;;;11.70;3.30;;;9.80;99.90;;;;;;4964715;28;20057;-86
2022/11/03 05:18:24;;;;;;;14.55;2.83;;;9.80;99.90;;;;;;4993179;28;20072;-85
2022/11/03 05:20:57;;;;;;;11.60;3.10;;;9.80;99.90;;;;;;4995647;28;20043;-85
2022/11/03 05:23:24;;;;;;;7.25;2.90;;;9.90;99.90;;;;;;4974642;28;20067;-85
2022/11/03 05:25:52;;;;;;;11.70;3.03;;;9.90;99.90;;;;;;5004367;28;20055;-85
2022/11/03 05:28:29;;;;;;;8.98;3.47;;;9.90;99.90;;;;;;4999155;28;20046;-85
2022/11/03 05:30:55;;;;;;;16.73;2.83;;;9.90;99.90;;;;;;4993298;28;20035;-86
2022/11/03 05:33:24;;;;;;;8.95;2.80;;;9.90;99.90;;;;;;4980893;28;20074;-85
2022/11/03 05:35:49;;;;;;;11.73;3.83;;;9.90;99.90;;;;;;4995842;28;20081;-85
2022/11/03 05:38:19;;;;;;;11.85;3.08;;;10.40;99.90;;;;;;4979706;28;20027;-85
2022/11/03 05:40:47;;;;;;;9.32;3.33;;;10.10;99.90;;;;;;4994707;28;20023;-85
2022/11/03 05:43:14;;;;;;;7.88;3.25;;;9.90;99.90;;;;;;4979674;28;20030;-85
2022/11/03 05:45:40;;;;;;;11.25;3.05;;;9.90;99.90;;;;;;4980781;28;20049;-85
2022/11/03 05:48:18;;;;;;;12.23;3.38;;;9.90;99.90;;;;;;4991522;28;20047;-84
2022/11/03 05:50:44;;;;;;;11.43;3.00;;;9.90;99.90;;;;;;4997632;28;20082;-85
2022/11/03 05:53:25;;;;;;;9.18;3.17;;;9.90;99.90;;;;;;4992996;28;20030;-85
2022/11/03 05:55:51;;;;;;;9.23;3.00;;;9.90;99.90;;;;;;4994235;28;20073;-85
2022/11/03 05:58:26;;;;;;;10.85;2.90;;;9.90;99.90;;;;;;4997448;28;20558;-85
2022/11/03 06:00:53;;;;;;;6.63;2.63;;;9.90;99.90;;;;;;4990982;28;20109;-85
2022/11/03 06:03:23;;;;;;;12.05;3.10;;;9.90;99.90;;;;;;4988981;28;20038;-84
2022/11/03 06:05:49;;;;;;;9.55;2.78;;;10.00;99.90;;;;;;4974255;28;20018;-85
2022/11/03 06:08:19;;;;;;;12.75;2.72;;;10.00;99.90;;;;;;4975939;28;20088;-85
2022/11/03 06:10:50;;;;;;;16.00;3.13;;;10.00;99.90;;;;;;4990538;28;20031;-84
2022/11/03 06:13:44;;;;;;;11.73;3.30;;;10.00;99.90;;;;;;4990384;28;20536;-85
2022/11/03 06:16:33;;;;;;;5.03;2.38;;;10.00;99.90;;;;;;4989692;28;20058;-85
2022/11/03 06:19:03;;;;;;;11.85;2.60;;;10.00;99.90;;;;;;4995979;28;20086;-85
2022/11/03 06:21:29;;;;;;;7.50;2.45;;;10.00;99.90;;;;;;5010673;28;20070;-85
2022/11/03 06:23:55;;;;;;;10.82;3.15;;;10.00;99.90;;;;;;4960191;28;20038;-85
2022/11/03 06:26:27;;;;;;;4.82;2.45;;;10.40;99.90;;;;;;4939053;28;20054;-85
2022/11/03 06:28:54;;;;;;;8.48;2.50;;;9.90;99.90;;;;;;4985981;28;20444;-85
2022/11/03 06:31:32;;;;;;;11.73;3.03;;;9.90;99.90;;;;;;4971030;28;20046;-85
2022/11/03 06:33:57;;;;;;;10.43;2.60;;;9.90;99.90;;;;;;4954135;28;20038;-85
2022/11/03 06:36:34;;;;;;;10.18;3.28;;;9.90;99.90;;;;;;4953615;28;20046;-85
2022/11/03 06:39:02;;;;;;;8.95;2.78;;;9.90;99.90;;;;;;4968564;28;20083;-85
2022/11/03 06:41:31;;;;;;;9.82;3.28;;;9.80;99.90;;;;;;4968903;28;20035;-85
2022/11/03 06:44:01;;;;;;;10.07;2.85;;;9.80;99.90;;;;;;4969686;28;20066;-85
2022/11/03 06:46:28;;;;;;;9.88;3.15;;;10.10;99.90;;;;;;4967936;28;20100;-84
2022/11/03 06:48:57;;;;;;;9.60;2.65;;;9.80;99.90;;;;;;4972980;28;20046;-85
2022/11/03 06:51:26;;;;;;;10.95;3.38;;;9.80;99.90;;;;;;4985142;28;20185;-85
2022/11/03 06:53:54;;;;;;;10.40;3.17;;;9.80;99.90;;;;;;4969334;28;20050;-85
2022/11/03 06:56:30;;;;;;;9.85;2.60;;;9.80;99.90;;;;;;4952343;28;20035;-85
2022/11/03 06:58:56;;;;;;;9.55;2.97;;;9.70;99.90;;;;;;4965960;28;20043;-85
2022/11/03 07:01:32;;;;;;;12.20;2.53;;;9.80;99.90;;;;;;4952603;28;20042;-86
2022/11/03 07:04:11;;;;;;;7.72;2.47;;;9.90;99.90;;;;;;4968691;28;20484;-85
2022/11/03 07:06:36;;;;;;;13.23;3.40;;;9.90;99.90;;;;;;4967018;28;20034;-85
2022/11/03 07:09:12;;;;;;;12.40;3.25;;;9.90;99.90;;;;;;4954696;28;20065;-85
2022/11/03 07:11:48;;;;;;;9.48;2.60;;;9.90;99.90;;;;;;4967721;28;20045;-85
2022/11/03 07:14:20;;;;;;;12.38;3.28;;;9.90;99.90;;;;;;4966908;28;20066;-86
2022/11/03 07:16:51;;;;;;;8.50;2.58;;;9.90;99.90;;;;;;4965941;28;20112;-85
2022/11/03 07:19:23;;;;;;;8.45;2.75;;;9.90;99.90;;;;;;4950821;28;20089;-86
2022/11/03 07:21:55;;;;;;;9.57;3.17;;;9.90;99.90;;;;;;4953387;28;20247;-85
2022/11/03 07:24:22;;;;;;;10.82;3.03;;;10.10;99.90;;;;;;4968953;28;20102;-85
2022/11/03 07:26:52;;;;;;;14.63;3.58;;;10.00;99.90;;;;;;4951632;28;20038;-85
2022/11/03 07:29:24;;;;;;;12.07;2.92;;;10.00;99.90;;;;;;4965252;28;20536;-86
2022/11/03 07:31:52;;;;;;;12.75;3.20;;;10.00;99.90;;;;;;4967032;28;20554;-86
2022/11/03 07:34:21;;;;;;;11.57;3.80;;;10.00;99.90;;;;;;4950057;28;20170;-85
2022/11/03 07:36:49;;;;;;;8.10;3.15;;;10.00;99.90;;;;;;4968398;28;20042;-85
2022/11/03 07:39:18;;;;;;;8.77;2.80;;;10.10;99.90;;;;;;4967406;28;20199;-86
2022/11/03 07:41:44;;;;;;;7.82;2.38;;;10.10;99.90;;;;;;4952422;28;20031;-85
2022/11/03 07:44:19;;;;;;;14.55;2.83;;;10.20;99.90;;;;;;4981824;28;20047;-85
2022/11/03 07:46:46;;;;;;;13.25;3.33;;;10.20;99.90;;;;;;4982513;28;20034;-85
2022/11/03 07:49:32;;;;;;;12.95;3.65;;;10.20;99.90;;;;;;4952709;28;20046;-85
2022/11/03 07:51:59;;;;;;;10.13;3.10;;;10.20;99.90;;;;;;4950280;28;20101;-85
2022/11/03 07:54:31;;;;;;;10.50;2.80;;;10.20;99.90;;;;;;4948672;28;20049;-85
2022/11/03 07:57:25;;;;;;;13.25;3.53;;;10.30;99.90;;;;;;4952938;28;20042;-85
2022/11/03 07:59:55;;;;;;;13.30;3.28;;;10.30;99.90;;;;;;4961397;28;20035;-85
2022/11/03 08:02:38;;;;;;;15.43;3.22;;;10.30;99.90;;;;;;4952208;28;20105;-85
2022/11/03 08:05:04;;;;;;;;;;;10.40;99.90;;;;;;4968113;28;20070;-86
2022/11/03 08:07:30;;;;;;;9.70;3.95;;;10.40;99.90;;;;;;4966527;28;19976;-86
2022/11/03 08:09:56;;;;;;;12.10;3.30;;;10.40;99.90;;;;;;4952493;28;20073;-85
2022/11/03 08:12:22;;;;;;;12.60;3.33;;;10.50;99.90;;;;;;4950332;28;20051;-85
2022/11/03 08:14:48;;;;;;;9.15;2.83;;;10.60;99.90;;;;;;4948948;28;20093;-86
2022/11/03 08:17:14;;;;;;;11.95;3.33;;;10.60;99.90;;;;;;4950464;28;20524;-87
2022/11/03 08:19:40;;;;;;;15.63;3.10;;;10.60;99.90;;;;;;4953485;28;20043;-87
2022/11/03 08:22:06;;;;;;;10.43;3.40;;;10.70;99.90;;;;;;4954437;28;20039;-87
2022/11/03 08:24:31;;;;;;;7.35;2.72;;;10.70;99.90;;;;;;4972287;28;20503;-87
2022/11/03 08:26:57;;;;;;;8.63;3.00;;;10.80;99.90;;;;;;4972102;28;20163;-87
2022/11/03 08:29:26;;;;;;;15.85;3.80;;;10.80;99.90;;;;;;4953714;28;20050;-87
2022/11/03 08:31:55;;;;;;;9.82;3.30;;;10.90;99.90;;;;;;4957204;28;20389;-86
2022/11/03 08:34:20;;;;;;;9.30;2.80;;;11.00;99.90;;;;;;4941882;28;20057;-87
2022/11/03 08:36:46;;;;;;;10.93;2.90;;;11.00;99.90;;;;;;4955965;28;20473;-86
2022/11/03 08:39:12;;;;;;;11.02;3.22;;;11.00;99.90;;;;;;4963356;28;20042;-87
2022/11/03 08:41:38;;;;;;;8.98;3.00;;;11.20;99.90;;;;;;4956338;28;20030;-87
2022/11/03 08:44:04;;;;;;;8.85;2.78;;;11.30;99.90;;;;;;4947769;28;20035;-87
2022/11/03 08:46:30;;;;;;;6.93;2.80;;;11.30;99.90;;;;;;4946257;28;20579;-86
2022/11/03 08:48:56;;;;;;;8.98;3.55;;;11.40;99.90;;;;;;4975333;28;20077;-87
2022/11/03 08:51:21;;;;;;;9.70;3.10;;;11.40;99.90;;;;;;4976739;28;20488;-87
2022/11/03 08:53:52;;;;;;;13.15;3.20;;;11.50;99.90;;;;;;4950639;28;20045;-86
2022/11/03 08:56:19;;;;;;;11.55;3.55;;;11.50;99.90;;;;;;4979752;28;20410;-87
2022/11/03 08:58:45;;;;;;;10.65;3.22;;;11.70;99.90;;;;;;4948781;28;20043;-87
2022/11/03 09:01:11;;;;;;;8.57;2.83;;;11.70;99.90;;;;;;4975507;28;20096;-87
2022/11/03 09:03:38;;;;;;;12.18;3.33;;;11.70;99.90;;;;;;4960966;28;20038;-87
2022/11/03 09:06:04;;;;;;;14.40;3.10;;;11.70;99.90;;;;;;4959257;28;20045;-87
2022/11/03 09:08:29;;;;;;;10.48;3.13;;;11.80;99.90;;;;;;4957483;28;20042;-87
2022/11/03 09:10:55;;;;;;;11.15;3.95;;;11.80;99.90;;;;;;4963946;28;20039;-87
2022/11/03 09:13:21;;;;;;;7.57;3.00;;;11.90;99.90;;;;;;4949381;28;20492;-86
2022/11/03 09:15:46;;;;;;;13.15;3.72;;;11.90;99.90;;;;;;4960747;28;20126;-87
2022/11/03 09:18:12;;;;;;;6.50;2.78;;;11.90;99.90;;;;;;4949492;28;20439;-86
2022/11/03 09:20:38;;;;;;;9.10;3.35;;;12.00;99.90;;;;;;4943723;28;20065;-86
2022/11/03 09:23:03;;;;;;;13.80;3.40;;;12.00;99.90;;;;;;4960149;28;20023;-86
2022/11/03 09:25:29;;;;;;;10.02;3.28;;;12.60;99.90;;;;;;4948467;28;20268;-87
2022/11/03 09:27:55;;;;;;;11.88;3.10;;;12.10;99.90;;;;;;4960640;28;20427;-86
2022/11/03 09:30:21;;;;;;;6.82;3.03;;;12.10;99.90;;;;;;4962038;28;20559;-86
2022/11/03 09:32:47;;;;;;;10.20;3.13;;;12.20;99.90;;;;;;4964455;28;20602;-86
2022/11/03 09:35:15;;;;;;;10.68;3.30;;;12.20;99.90;;;;;;4969585;28;20043;-85
2022/11/03 09:37:42;;;;;;;7.68;3.40;;;12.30;99.90;;;;;;4985513;28;20031;-87
2022/11/03 09:40:09;;;;;;;13.55;3.35;;;12.40;99.90;;;;;;4945757;28;20042;-86
2022/11/03 09:42:37;;;;;;;11.85;3.30;;;12.40;99.90;;;;;;4958119;28;20518;-87
2022/11/03 09:45:03;;;;;;;7.45;3.10;;;12.50;99.90;;;;;;4975479;28;20053;-87
2022/11/03 09:47:38;;;;;;;13.48;3.38;;;12.60;99.90;;;;;;4978478;28;20039;-86
2022/11/03 09:50:05;;;;;;;11.88;3.30;;;12.70;99.90;;;;;;4975820;28;20043;-86
2022/11/03 09:52:34;;;;;;;11.27;3.17;;;12.80;99.90;;;;;;4959362;28;20043;-86
2022/11/03 09:55:00;;;;;;;14.63;3.47;;;12.90;99.90;;;;;;4974131;28;20046;-86
2022/11/03 09:57:27;;;;;;;9.07;3.38;;;13.00;99.90;;;;;;4973177;28;20044;-86
2022/11/03 09:59:53;;;;;;;13.30;4.00;;;13.10;99.90;;;;;;4956251;28;20045;-86
2022/11/03 10:02:21;;;;;;;10.60;4.03;;;13.10;99.90;;;;;;4974933;28;20847;-85
2022/11/03 10:04:47;;;;;;;10.18;4.13;;;13.20;99.90;;;;;;4979982;28;20175;-88
2022/11/03 10:07:13;;;;;;;11.23;3.83;;;13.30;99.90;;;;;;4974249;28;20046;-88
2022/11/03 10:09:45;;;;;;;14.35;3.58;;;13.30;99.90;;;;;;4954796;28;20550;-88
2022/11/03 10:12:11;;;;;;;10.65;2.88;;;13.40;99.90;;;;;;4972782;28;20539;-87
2022/11/03 10:14:36;;;;;;;10.15;2.88;;;13.50;99.90;;;;;;4946614;28;20039;-93
2022/11/03 10:17:02;;;;;;;8.85;2.90;;;13.60;99.90;;;;;;4963412;28;20475;-93
2022/11/03 10:19:28;;;;;;;13.35;2.85;;;13.60;99.90;;;;;;4962348;28;20038;-95
2022/11/03 10:21:54;;;;;;;12.68;3.33;;;13.70;99.90;;;;;;4950787;28;20476;-94
2022/11/03 10:24:19;;;;;;;11.68;2.90;;;13.70;99.90;;;;;;4960251;28;20034;-94
2022/11/03 10:26:51;;;;;;;12.73;3.10;;;13.70;99.90;;;;;;4950486;28;20062;-95
2022/11/03 10:29:24;;;;;;;11.15;3.05;;;13.70;99.90;;;;;;4961865;28;20057;-93
2022/11/03 10:31:53;;;;;;;9.60;3.22;;;13.70;99.90;;;;;;4960978;28;20053;-92
2022/11/03 10:34:33;;;;;;;7.53;2.65;;;13.70;99.90;;;;;;4975106;28;20049;-89
2022/11/03 10:37:16;;;;;;;16.30;3.22;;;13.70;99.90;;;;;;4966749;28;20380;-90
2022/11/03 10:39:44;;;;;;;10.68;3.40;;;13.70;99.90;;;;;;4954724;28;20673;-89
2022/11/03 10:42:29;;;;;;;9.30;2.63;;;13.80;99.90;;;;;;4974900;28;20042;-92
2022/11/03 10:45:16;;;;;;;11.55;3.20;;;13.70;99.90;;;;;;4969430;28;20042;-89
2022/11/03 10:47:42;;;;;;;8.18;2.88;;;13.80;99.90;;;;;;4974653;28;20116;-91
2022/11/03 10:50:23;;;;;;;8.90;2.88;;;13.70;99.90;;;;;;4925759;28;20536;-91
2022/11/03 10:52:50;;;;;;;10.10;2.85;;;13.80;99.90;;;;;;4968316;28;20043;-91
2022/11/03 10:55:17;;;;;;;6.97;3.20;;;13.90;99.90;;;;;;4966796;28;20035;-90
2022/11/03 10:57:43;;;;;;;11.40;3.42;;;13.90;99.90;;;;;;4970570;28;20103;-91
2022/11/03 11:00:14;;;;;;;9.68;3.13;;;14.00;99.90;;;;;;4960230;28;20067;-90
2022/11/03 11:02:41;;;;;;;9.85;2.55;;;14.10;99.90;;;;;;4957515;28;20065;-91
2022/11/03 11:05:23;;;;;;;8.65;2.95;;;14.20;99.90;;;;;;4959297;28;20043;-90
2022/11/03 11:07:53;;;;;;;6.60;2.47;;;14.40;99.90;;;;;;4970337;28;20047;-91
2022/11/03 11:10:23;;;;;;;7.35;2.22;;;14.40;99.90;;;;;;4951841;28;20047;-90
2022/11/03 11:13:04;;;;;;;10.27;3.03;;;14.40;99.90;;;;;;4970683;28;20508;-90
2022/11/03 11:15:40;;;;;;;5.88;2.60;;;14.50;99.90;;;;;;4966560;28;20047;-90
2022/11/03 11:18:07;;;;;;;11.15;2.72;;;14.50;99.90;;;;;;4963128;28;20069;-90
2022/11/03 11:20:35;;;;;;;8.82;2.80;;;14.50;99.90;;;;;;4956805;28;20035;-90
2022/11/03 11:23:33;;;;;;;6.30;2.70;;;14.50;99.90;;;;;;4971512;28;20377;-90
2022/11/03 11:26:08;;;;;;;4.90;2.10;;;14.60;99.90;;;;;;4937643;28;20051;-90
2022/11/03 11:29:09;;;;;;;9.07;2.90;;;14.60;99.90;;;;;;4952743;28;20070;-91
2022/11/03 11:31:35;;;;;;;5.53;2.13;;;14.50;99.90;;;;;;4967163;28;20754;-89
2022/11/03 11:34:17;;;;;;;9.32;2.30;;;14.50;99.90;;;;;;4960457;28;20043;-90
2022/11/03 11:37:06;;;;;;;7.85;2.40;;;14.50;99.90;;;;;;4959405;28;20516;-89
2022/11/03 11:39:33;;;;;;;7.40;2.30;;;14.50;99.90;;;;;;4958340;28;20489;-90
2022/11/03 11:42:19;;;;;;;9.75;2.72;;;14.40;99.90;;;;;;4953779;28;20065;-89
2022/11/03 11:44:55;;;;;;;8.73;2.83;;;14.40;99.90;;;;;;4970866;28;20039;-90
2022/11/03 11:47:23;;;;;;;5.93;2.35;;;14.40;99.90;;;;;;4965438;28;20105;-89
2022/11/03 11:50:10;;;;;;;8.77;2.65;;;14.40;99.90;;;;;;4962590;28;20043;-89
2022/11/03 11:52:43;;;;;;;6.60;2.60;;;14.30;99.90;;;;;;4954207;28;20125;-89
2022/11/03 11:55:25;;;;;;;5.22;2.10;;;14.30;99.90;;;;;;4966816;28;20570;-89
2022/11/03 11:57:52;;;;;;;13.30;2.75;;;14.30;99.90;;;;;;4954309;28;20056;-90
2022/11/03 12:00:21;;;;;;;10.85;2.65;;;14.20;99.90;;;;;;4954784;28;20061;-90
2022/11/03 12:02:47;;;;;;;7.50;2.47;;;14.20;99.90;;;;;;4967189;28;20108;-90
2022/11/03 12:05:29;;;;;;;7.43;2.45;;;14.10;99.90;;;;;;4957145;28;20039;-90
2022/11/03 12:07:56;;;;;;;12.95;2.88;;;14.10;99.90;;;;;;4966577;28;20035;-89
2022/11/03 12:10:27;;;;;;;5.50;2.13;;;14.10;99.90;;;;;;4955897;28;20557;-90
2022/11/03 12:12:54;;;;;;;7.90;2.63;;;14.10;99.90;;;;;;4966901;28;20031;-89
2022/11/03 12:15:54;;;;;;;4.95;2.08;;;14.10;99.90;;;;;;4950986;28;20050;-89
2022/11/03 12:18:38;;;;;;;3.83;1.90;;;14.10;99.90;;;;;;4965572;28;20411;-88
2022/11/03 12:21:09;;;;;;;6.32;2.42;;;14.00;99.90;;;;;;4943034;28;20038;-89
2022/11/03 12:23:45;;;;;;;6.47;2.45;;;14.00;99.90;;;;;;4970802;28;20042;-88
2022/11/03 12:26:40;;;;;;;7.18;2.42;;;14.00;99.90;;;;;;4944222;28;20055;-90
2022/11/03 12:29:06;;;;;;;6.70;2.15;;;14.00;99.90;;;;;;4949084;28;20077;-89
2022/11/03 12:31:32;;;;;;;4.85;2.80;;;14.00;99.90;;;;;;4953480;28;20052;-89
2022/11/03 12:33:58;;;;;;;8.43;2.63;;;14.10;99.90;;;;;;4945450;28;20034;-89
2022/11/03 12:36:24;;;;;;;5.10;2.45;;;14.00;99.90;;;;;;4953205;28;20046;-90
2022/11/03 12:38:49;;;;;;;8.15;2.60;;;14.00;99.90;;;;;;4933096;28;20043;-90
2022/11/03 12:41:21;;;;;;;6.30;2.25;;;14.00;99.90;;;;;;4944766;28;20049;-89
2022/11/03 12:43:48;;;;;;;9.52;2.55;;;14.00;99.90;;;;;;4948552;28;20038;-90
2022/11/03 12:46:15;;;;;;;8.25;2.47;;;14.00;99.90;;;;;;4965285;28;20093;-90
2022/11/03 12:48:42;;;;;;;8.00;2.83;;;14.00;99.90;;;;;;4949591;28;20050;-90
2022/11/03 12:51:12;;;;;;;11.40;2.78;;;14.00;99.90;;;;;;4951511;28;20460;-90
2022/11/03 12:53:39;;;;;;;4.85;2.10;;;14.00;99.90;;;;;;4943296;28;20101;-90
2022/11/03 12:56:06;;;;;;;5.90;2.00;;;14.00;99.90;;;;;;4967112;28;20046;-88
2022/11/03 12:58:32;;;;;;;10.32;2.88;;;14.10;99.90;;;;;;4946663;28;20038;-89
2022/11/03 13:00:58;;;;;;;7.10;2.80;;;14.00;99.90;;;;;;4946732;28;20177;-90
2022/11/03 13:03:24;;;;;;;7.95;2.97;;;14.10;99.90;;;;;;4966174;28;20114;-88
2022/11/03 13:05:50;;;;;;;8.05;2.70;;;14.10;99.90;;;;;;4954560;28;20600;-90
2022/11/03 13:08:16;;;;;;;10.50;3.05;;;14.10;99.90;;;;;;4955491;28;20377;-90
2022/11/03 13:10:41;;;;;;;5.60;2.20;;;14.10;99.90;;;;;;4955959;28;20514;-90
2022/11/03 13:13:10;;;;;;;12.70;2.80;;;14.10;99.90;;;;;;4953280;28;20064;-91
2022/11/03 13:15:36;;;;;;;7.35;2.10;;;14.20;99.90;;;;;;4935478;28;20075;-90